.
WxDataArchive / Data Records for 2009-04-22
2009-04-21 April 2009 2009-04-23

Data Records for Wednesday, 22 April 2009

Time	Temp	Chill	HIndex	Humid	Dewpt	 Wind 	HiWind	WindDir	Rain 	Barom 
-----	----	-----	------	-----	-----	------	------	-------	-----	----- 
00:00	39.1	39.1	39.1	83	34.4	2	5	270	0.00	29.739 
00:05	39.1	39.1	39.1	83	34.4	2	6	270	0.00	29.739 
00:10	39.1	39.1	39.1	83	34.4	2	4	270	0.00	29.739 
00:15	38.9	38.9	38.9	84	34.5	2	4	248	0.00	29.739 
00:20	38.9	38.9	38.9	84	34.5	2	5	248	0.00	29.739 
00:25	38.8	38.8	38.8	84	34.4	1	3	270	0.00	29.739 
00:30	38.8	38.8	38.8	84	34.4	1	3	248	0.00	29.741 
00:35	38.8	38.8	38.8	84	34.4	2	6	270	0.00	29.741 
00:40	38.8	38.8	38.8	84	34.4	2	5	270	0.00	29.741 
00:45	38.8	38.8	38.8	84	34.4	2	4	248	0.00	29.739 
00:50	38.8	38.8	38.8	84	34.4	1	3	248	0.00	29.739 
00:55	38.8	38.8	38.8	85	34.7	1	3	248	0.00	29.739 
01:00	38.6	38.6	38.6	85	34.5	1	4	248	0.00	29.740 
01:05	38.6	38.6	38.6	85	34.5	2	5	248	0.00	29.740 
01:10	38.5	38.5	38.5	85	34.4	1	3	248	0.00	29.740 
01:15	38.3	38.3	38.3	85	34.2	1	4	248	0.00	29.739 
01:20	38.5	38.5	38.5	85	34.4	1	3	248	0.00	29.739 
01:25	38.5	38.5	38.5	85	34.4	1	3	248	0.00	29.739 
01:30	38.5	38.5	38.5	85	34.4	2	4	248	0.00	29.738 
01:35	38.5	38.5	38.5	85	34.4	3	5	248	0.00	29.738 
01:40	38.5	38.5	38.5	86	34.7	1	5	270	0.00	29.738 
01:45	38.3	38.3	38.3	86	34.5	1	3	270	0.00	29.740 
01:50	38.3	38.3	38.3	87	34.8	2	7	270	0.00	29.740 
01:55	38.3	38.3	38.3	87	34.8	2	4	270	0.00	29.740 
02:00	38.3	38.3	38.3	86	34.5	2	5	270	0.00	29.742 
02:05	38.3	38.3	38.3	85	34.2	2	6	248	0.00	29.742 
02:10	38.3	38.3	38.3	84	33.9	2	5	270	0.00	29.742 
02:15	38.2	38.2	38.2	83	33.5	2	5	315	0.00	29.740 
02:20	38.2	38.2	38.2	82	33.2	2	5	270	0.00	29.740 
02:25	38.0	38.0	38.0	82	33.0	2	4	270	0.00	29.740 
02:30	38.0	38.0	38.0	82	33.0	2	5	270	0.00	29.738 
02:35	38.2	38.2	38.2	82	33.2	2	3	270	0.00	29.738 
02:40	38.2	38.2	38.2	82	33.2	1	3	338	0.00	29.738 
02:45	38.2	38.2	38.2	83	33.5	2	4	248	0.00	29.737 
02:50	38.2	38.2	38.2	83	33.5	2	4	270	0.00	29.737 
02:55	38.2	38.2	38.2	83	33.5	2	4	248	0.00	29.737 
03:00	38.2	38.2	38.2	83	33.5	2	4	270	0.00	29.736 
03:05	38.3	38.3	38.3	83	33.6	2	5	248	0.00	29.736 
03:10	38.3	38.3	38.3	83	33.6	2	6	248	0.00	29.736 
03:15	38.2	38.2	38.2	83	33.5	2	6	248	0.00	29.735 
03:20	38.2	38.2	38.2	83	33.5	3	9	248	0.00	29.735 
03:25	38.2	38.2	38.2	83	33.5	1	3	248	0.00	29.735 
03:30	38.2	38.2	38.2	83	33.5	2	4	248	0.00	29.737 
03:35	38.2	38.2	38.2	83	33.5	2	5	248	0.00	29.737 
03:40	38.0	38.0	38.0	83	33.3	2	5	248	0.00	29.737 
03:45	37.9	37.9	37.9	83	33.2	2	4	248	0.00	29.738 
03:50	37.8	37.8	37.8	83	33.1	2	5	248	0.00	29.738 
03:55	37.6	37.6	37.6	83	32.9	2	5	270	0.00	29.738 
04:00	37.6	37.6	37.6	83	32.9	3	6	270	0.00	29.747 
04:05	37.6	37.6	37.6	83	32.9	2	4	248	0.00	29.747 
04:10	37.5	37.5	37.5	83	32.8	2	6	248	0.00	29.747 
04:15	37.5	37.5	37.5	83	32.8	2	5	248	0.00	29.752 
04:20	37.6	37.6	37.6	84	33.2	1	2	270	0.00	29.752 
04:25	37.6	37.6	37.6	84	33.2	1	3	270	0.00	29.752 
04:30	37.6	37.6	37.6	84	33.2	1	4	248	0.00	29.753 
04:35	37.6	37.6	37.6	84	33.2	1	3	270	0.00	29.753 
04:40	37.8	37.8	37.8	83	33.1	1	3	292	0.00	29.753 
04:45	37.8	37.8	37.8	83	33.1	2	4	292	0.00	29.757 
04:50	37.8	37.8	37.8	82	32.8	2	5	248	0.00	29.757 
04:55	37.9	37.9	37.9	82	32.9	2	3	270	0.00	29.757 
05:00	38.0	38.0	38.0	81	32.7	1	4	270	0.00	29.759 
05:05	38.2	38.2	38.2	81	32.9	1	4	248	0.00	29.759 
05:10	38.2	38.2	38.2	81	32.9	1	3	248	0.00	29.759 
05:15	38.2	38.2	38.2	80	32.6	2	5	248	0.00	29.760 
05:20	38.2	38.2	38.2	80	32.6	1	3	248	0.00	29.760 
05:25	38.2	38.2	38.2	80	32.6	1	3	248	0.00	29.760 
05:30	38.2	38.2	38.2	80	32.6	1	3	225	0.00	29.767 
05:35	38.0	38.0	38.0	81	32.7	0	2	225	0.00	29.767 
05:40	38.0	38.0	38.0	81	32.7	2	4	248	0.00	29.767 
05:45	37.9	37.9	37.9	81	32.6	1	2	248	0.00	29.771 
05:50	37.8	37.8	37.8	81	32.5	1	3	248	0.00	29.771 
05:55	37.6	37.6	37.6	81	32.3	1	2	248	0.00	29.771 
06:00	37.6	37.6	37.6	82	32.6	1	4	248	0.00	29.773 
06:05	37.6	37.6	37.6	82	32.6	1	4	248	0.00	29.773 
06:10	37.6	37.6	37.6	82	32.6	1	5	248	0.00	29.773 
06:15	37.6	37.6	37.6	81	32.3	1	3	248	0.00	29.774 
06:20	37.6	37.6	37.6	81	32.3	1	3	248	0.00	29.774 
06:25	37.8	37.8	37.8	80	32.2	2	3	248	0.00	29.774 
06:30	37.8	37.8	37.8	80	32.2	1	3	248	0.00	29.782 
06:35	37.8	37.8	37.8	79	31.9	1	3	248	0.00	29.782 
06:40	37.9	37.9	37.9	78	31.7	1	3	248	0.00	29.782 
06:45	37.9	37.9	37.9	77	31.3	2	4	248	0.00	29.787 
06:50	38.0	38.0	38.0	77	31.4	1	3	248	0.00	29.787 
06:55	37.9	37.9	37.9	77	31.3	1	3	248	0.00	29.787 
07:00	37.9	37.9	37.9	77	31.3	1	3	248	0.00	29.794 
07:05	37.8	37.8	37.8	77	31.2	1	2	248	0.00	29.794 
07:10	37.8	37.8	37.8	77	31.2	1	3	248	0.00	29.794 
07:15	37.8	37.8	37.8	78	31.6	1	3	248	0.00	29.804 
07:20	37.8	37.8	37.8	78	31.6	1	4	248	0.00	29.804 
07:25	37.8	37.8	37.8	78	31.6	1	2	248	0.00	29.804 
07:30	37.8	37.8	37.8	78	31.6	1	3	248	0.00	29.814 
07:35	37.8	37.8	37.8	78	31.6	1	5	248	0.00	29.814 
07:40	37.9	37.9	37.9	78	31.7	1	3	248	0.00	29.814 
07:45	38.2	38.2	38.2	78	32.0	1	3	248	0.00	29.820 
07:50	38.5	38.5	38.5	77	31.9	1	5	270	0.00	29.820 
07:55	38.9	38.9	38.9	77	32.3	1	3	248	0.00	29.820 
08:00	39.2	39.2	39.2	76	32.3	2	3	248	0.00	29.821 
08:05	39.6	39.6	39.6	75	32.3	2	3	270	0.00	29.821 
08:10	39.9	39.9	39.9	74	32.3	1	4	292	0.00	29.821 
08:15	40.2	40.2	40.2	74	32.6	1	4	270	0.00	29.828 
08:20	40.6	40.6	40.6	73	32.6	1	3	270	0.00	29.828 
08:25	41.1	41.1	41.1	71	32.4	1	3	338	0.00	29.828 
08:30	41.3	41.3	41.3	70	32.3	2	4	270	0.00	29.835 
08:35	41.6	41.6	41.6	70	32.6	2	5	248	0.00	29.835 
08:40	41.9	41.9	41.9	69	32.5	2	6	270	0.00	29.835 
08:45	42.2	42.2	42.2	67	32.0	2	4	270	0.00	29.841 
08:50	42.8	42.8	42.8	67	32.6	2	4	270	0.00	29.841 
08:55	43.1	43.1	43.1	67	32.9	1	4	248	0.00	29.841 
09:00	43.5	43.5	43.5	66	32.9	2	7	248	0.00	29.844 
09:05	43.9	43.9	43.9	66	33.3	2	6	248	0.00	29.844 
09:10	44.3	44.3	44.3	64	32.9	1	4	270	0.00	29.844 
09:15	44.8	44.8	44.8	62	32.6	2	5	338	0.00	29.840 
09:20	45.1	45.1	45.1	61	32.5	2	4	270	0.00	29.840 
09:25	45.4	45.4	45.4	62	33.2	2	5	248	0.00	29.840 
09:30	45.5	45.5	45.5	59	32.0	2	6	270	0.00	29.839 
09:35	46.0	46.0	46.0	59	32.5	1	3	338	0.00	29.839 
09:40	46.7	46.7	46.7	60	33.6	1	3	338	0.00	29.839 
09:45	46.7	46.7	46.7	56	31.8	1	5	248	0.00	29.838 
09:50	46.8	46.8	46.8	59	33.2	1	3	248	0.00	29.838 
09:55	47.0	47.0	47.0	57	32.6	1	4	248	0.00	29.838 
10:00	47.1	47.1	47.1	57	32.7	2	6	248	0.00	29.843 
10:05	47.6	47.6	47.6	58	33.6	1	4	338	0.00	29.843 
10:10	47.9	47.9	47.9	56	33.0	2	5	248	0.00	29.843 
10:15	48.0	48.0	48.0	54	32.2	2	6	248	0.00	29.843 
10:20	48.5	48.5	48.5	55	33.1	2	4	248	0.00	29.843 
10:25	48.8	48.8	48.8	56	33.8	2	5	270	0.00	29.843 
10:30	48.9	48.9	48.9	54	33.0	2	4	270	0.00	29.841 
10:35	49.2	49.2	49.2	56	34.2	2	6	248	0.00	29.841 
10:40	49.2	49.2	49.2	54	33.3	1	3	248	0.00	29.841 
10:45	48.8	48.8	48.8	55	33.4	2	5	248	0.00	29.844 
10:50	48.6	48.6	48.6	56	33.6	1	3	248	0.00	29.844 
10:55	48.5	48.5	48.5	56	33.5	1	3	315	0.00	29.844 
11:00	48.3	48.3	48.3	57	33.8	1	4	270	0.00	29.846 
11:05	48.5	48.5	48.5	58	34.4	1	2	248	0.00	29.846 
11:10	49.2	49.2	49.2	59	35.5	1	3	270	0.00	29.846 
11:15	50.1	50.1	50.1	58	35.9	1	2	248	0.00	29.844 
11:20	50.5	50.5	50.5	56	35.4	2	6	248	0.00	29.844 
11:25	50.8	50.8	50.8	54	34.8	1	5	248	0.00	29.844 
11:30	51.3	51.3	51.3	60	37.9	1	2	248	0.00	29.837 
11:35	51.9	51.9	51.9	54	35.8	1	4	248	0.00	29.837 
11:40	52.2	52.2	52.2	52	35.1	1	4	338	0.00	29.837 
11:45	51.9	51.9	51.9	51	34.3	1	3	270	0.00	29.840 
11:50	51.6	51.6	51.6	52	34.6	0	3	270	0.00	29.840 
11:55	51.6	51.6	51.6	54	35.5	0	2	0	0.00	29.840 
12:00	51.7	51.7	51.7	53	35.1	1	5	270	0.00	29.839 
12:05	51.7	51.7	51.7	52	34.6	1	3	248	0.00	29.839 
12:10	51.6	51.6	51.6	54	35.5	1	2	248	0.00	29.839 
12:15	51.4	51.4	51.4	56	36.2	0	3	338	0.00	29.837 
12:20	52.0	52.0	52.0	53	35.4	1	4	270	0.00	29.837 
12:25	52.9	52.9	52.9	54	36.7	0	2	248	0.00	29.837 
12:30	53.8	53.8	53.8	49	35.1	2	6	315	0.00	29.831 
12:35	54.7	54.7	54.7	52	37.4	1	4	248	0.00	29.831 
12:40	55.1	55.1	55.1	50	36.8	2	4	292	0.00	29.831 
12:45	55.3	55.3	55.3	51	37.5	2	4	270	0.00	29.828 
12:50	55.6	55.6	55.6	53	38.7	2	6	248	0.00	29.828 
12:55	55.6	55.6	55.6	50	37.3	3	5	270	0.00	29.828 
13:00	55.6	55.6	55.6	51	37.8	2	6	248	0.00	29.823 
13:05	55.9	55.9	55.9	52	38.5	2	5	270	0.00	29.823 
13:10	55.7	55.7	55.7	52	38.3	3	6	270	0.00	29.823 
13:15	56.0	56.0	56.0	52	38.6	2	5	248	0.00	29.822 
13:20	56.0	56.0	56.0	50	37.6	2	6	270	0.00	29.822 
13:25	56.0	56.0	56.0	51	38.1	2	5	270	0.00	29.822 
13:30	56.0	56.0	56.0	49	37.1	2	5	270	0.00	29.815 
13:35	55.6	55.6	55.6	49	36.7	2	6	248	0.00	29.815 
13:40	56.2	56.2	56.2	50	37.8	3	8	248	0.00	29.815 
13:45	57.2	57.2	57.2	46	36.6	4	11	270	0.00	29.810 
13:50	57.0	57.0	57.0	48	37.5	4	7	270	0.00	29.810 
13:55	56.6	56.6	56.6	47	36.6	4	13	270	0.00	29.810 
14:00	56.5	56.5	56.5	47	36.5	3	6	270	0.00	29.808 
14:05	56.6	56.6	56.6	48	37.1	3	9	270	0.00	29.808 
14:10	56.0	56.0	56.0	49	37.1	3	9	270	0.00	29.808 
14:15	55.3	55.3	55.3	49	36.5	4	9	270	0.00	29.815 
14:20	56.0	56.0	56.0	49	37.1	3	12	270	0.00	29.815 
14:25	56.3	56.3	56.3	51	38.4	4	12	270	0.00	29.815 
14:30	56.9	56.9	56.9	46	36.3	4	7	270	0.00	29.814 
14:35	57.2	57.2	57.2	44	35.5	3	10	270	0.00	29.814 
14:40	57.5	57.5	57.5	43	35.2	4	7	270	0.00	29.814 
14:45	57.5	57.5	57.5	37	31.4	4	10	270	0.00	29.819 
14:50	56.6	56.6	56.6	37	30.6	4	7	270	0.00	29.819 
14:55	56.5	56.5	56.5	38	31.2	3	7	270	0.00	29.819 
15:00	57.2	57.2	57.2	40	33.1	3	7	270	0.00	29.825 
15:05	58.0	58.0	58.0	37	31.9	3	7	270	0.00	29.825 
15:10	58.4	58.4	58.4	34	30.1	4	11	270	0.00	29.825 
15:15	58.7	58.7	58.7	31	28.1	4	13	270	0.00	29.822 
15:20	58.0	58.0	58.0	30	26.7	4	12	270	0.00	29.822 
15:25	57.2	57.2	57.2	31	26.8	4	11	270	0.00	29.822 
15:30	57.2	57.2	57.2	31	26.8	4	7	270	0.00	29.828 
15:35	56.7	56.7	56.7	32	27.2	4	12	270	0.00	29.828 
15:40	56.3	56.3	56.3	32	26.8	4	10	315	0.00	29.828 
15:45	57.8	57.8	57.8	31	27.4	2	4	315	0.00	29.825 
15:50	57.6	57.6	57.6	30	26.4	2	7	292	0.00	29.825 
15:55	58.9	58.9	58.9	34	30.6	3	13	270	0.00	29.825 
16:00	59.3	59.3	59.3	30	27.9	4	7	270	0.00	29.822 
16:05	58.3	58.3	58.3	31	27.8	4	11	270	0.00	29.822 
16:10	58.7	58.7	58.7	32	28.9	5	12	270	0.00	29.822 
16:15	58.7	58.7	58.7	31	28.1	5	11	270	0.00	29.828 
16:20	58.3	58.3	58.3	30	27.0	4	11	270	0.00	29.828 
16:25	57.2	57.2	57.2	30	26.1	3	9	270	0.00	29.828 
16:30	57.2	57.2	57.2	31	26.8	2	7	270	0.00	29.832 
16:35	57.2	57.2	57.2	31	26.8	3	8	270	0.00	29.832 
16:40	58.0	58.0	58.0	32	28.3	3	10	338	0.00	29.832 
16:45	58.3	58.3	58.3	29	26.2	3	7	0	0.00	29.823 
16:50	58.6	58.6	58.6	29	26.4	3	11	270	0.00	29.823 
16:55	58.4	58.4	58.4	28	25.4	5	15	315	0.00	29.823 
17:00	58.4	58.4	58.4	28	25.4	3	9	270	0.00	29.825 
17:05	58.7	58.7	58.7	30	27.4	3	10	292	0.00	29.825 
17:10	58.4	58.4	58.4	29	26.3	4	10	270	0.00	29.825 
17:15	58.3	58.3	58.3	29	26.2	4	10	292	0.00	29.824 
17:20	58.4	58.4	58.4	31	27.9	3	9	338	0.00	29.824 
17:25	58.4	58.4	58.4	30	27.1	2	6	292	0.00	29.824 
17:30	57.6	57.6	57.6	31	27.2	3	7	315	0.00	29.829 
17:35	57.2	57.2	57.2	31	26.8	4	7	270	0.00	29.829 
17:40	57.0	57.0	57.0	32	27.4	1	5	248	0.00	29.829 
17:45	57.0	57.0	57.0	32	27.4	3	9	338	0.00	29.840 
17:50	56.6	56.6	56.6	34	28.6	4	9	315	0.00	29.840 
17:55	57.2	57.2	57.2	35	29.8	3	5	248	0.00	29.840 
18:00	57.8	57.8	57.8	35	30.3	3	5	270	0.00	29.836 
18:05	58.0	58.0	58.0	33	29.1	3	11	270	0.00	29.836 
18:10	58.0	58.0	58.0	36	31.2	2	5	248	0.00	29.836 
18:15	57.6	57.6	57.6	36	30.8	2	6	292	0.00	29.837 
18:20	57.2	57.2	57.2	35	29.8	3	5	248	0.00	29.837 
18:25	56.9	56.9	56.9	36	30.2	1	5	292	0.00	29.837 
18:30	56.7	56.7	56.7	36	30.0	1	4	315	0.00	29.848 
18:35	56.7	56.7	56.7	36	30.0	1	4	0	0.00	29.848 
18:40	56.9	56.9	56.9	37	30.9	2	7	270	0.00	29.848 
18:45	57.0	57.0	57.0	37	31.0	2	9	0	0.00	29.851 
18:50	57.0	57.0	57.0	36	30.3	2	5	270	0.00	29.851 
18:55	56.9	56.9	56.9	38	31.6	1	4	270	0.00	29.851 
19:00	56.9	56.9	56.9	37	30.9	1	5	338	0.00	29.853 
19:05	57.0	57.0	57.0	39	32.3	1	3	292	0.00	29.853 
19:10	56.9	56.9	56.9	37	30.9	2	7	22	0.00	29.853 
19:15	56.6	56.6	56.6	39	31.9	2	6	270	0.00	29.855 
19:20	56.3	56.3	56.3	37	30.4	2	6	270	0.00	29.855 
19:25	56.0	56.0	56.0	39	31.4	2	7	292	0.00	29.855 
19:30	55.6	55.6	55.6	39	31.0	1	3	292	0.00	29.863 
19:35	55.3	55.3	55.3	39	30.8	3	9	338	0.00	29.863 
19:40	55.1	55.1	55.1	39	30.6	2	6	270	0.00	29.863 
19:45	55.0	55.0	55.0	39	30.5	2	9	315	0.00	29.870 
19:50	55.0	55.0	55.0	40	31.1	2	6	315	0.00	29.870 
19:55	54.8	54.8	54.8	41	31.6	2	10	315	0.00	29.870 
20:00	54.5	54.5	54.5	41	31.3	3	11	338	0.00	29.883 
20:05	54.1	54.1	54.1	43	32.1	1	5	0	0.00	29.883 
20:10	53.8	53.8	53.8	44	32.4	1	5	292	0.00	29.883 
20:15	53.3	53.3	53.3	45	32.5	1	7	270	0.00	29.885 
20:20	53.1	53.1	53.1	45	32.3	2	6	315	0.00	29.885 
20:25	52.8	52.8	52.8	45	32.1	2	6	315	0.00	29.885 
20:30	52.5	52.5	52.5	45	31.8	1	5	315	0.00	29.901 
20:35	52.2	52.2	52.2	46	32.1	1	4	315	0.00	29.901 
20:40	51.9	51.9	51.9	46	31.8	2	6	270	0.00	29.901 
20:45	51.7	51.7	51.7	46	31.6	2	5	292	0.00	29.914 
20:50	51.4	51.4	51.4	46	31.3	1	3	338	0.00	29.914 
20:55	51.1	51.1	51.1	46	31.0	1	5	292	0.00	29.914 
21:00	50.8	50.8	50.8	45	30.2	1	4	338	0.00	29.921 
21:05	50.7	50.7	50.7	45	30.1	1	4	292	0.00	29.921 
21:10	50.4	50.4	50.4	45	29.9	0	4	225	0.00	29.921 
21:15	50.1	50.1	50.1	46	30.1	1	4	270	0.00	29.930 
21:20	49.9	49.9	49.9	46	30.0	0	2	270	0.00	29.930 
21:25	49.6	49.6	49.6	45	29.1	1	3	338	0.00	29.930 
21:30	49.5	49.5	49.5	45	29.0	0	2	338	0.00	29.936 
21:35	49.2	49.2	49.2	46	29.3	0	2	338	0.00	29.936 
21:40	48.9	48.9	48.9	46	29.0	0	1	338	0.00	29.936 
21:45	48.6	48.6	48.6	47	29.3	0	1	338	0.00	29.948 
21:50	48.3	48.3	48.3	48	29.5	0	1	338	0.00	29.948 
21:55	48.0	48.0	48.0	49	29.8	0	1	338	0.00	29.948 
22:00	47.7	47.7	47.7	50	30.0	0	1	338	0.00	29.958 
22:05	47.4	47.4	47.4	50	29.7	0	1	338	0.00	29.958 
22:10	47.3	47.3	47.3	50	29.6	0	1	338	0.00	29.958 
22:15	47.0	47.0	47.0	51	29.8	0	1	338	0.00	29.964 
22:20	46.7	46.7	46.7	51	29.5	0	0	---	0.00	29.964 
22:25	46.2	46.2	46.2	52	29.6	0	0	---	0.00	29.964 
22:30	46.0	46.0	46.0	52	29.4	0	1	338	0.00	29.970 
22:35	45.7	45.7	45.7	52	29.1	0	0	---	0.00	29.970 
22:40	45.4	45.4	45.4	52	28.8	0	1	338	0.00	29.970 
22:45	45.2	45.2	45.2	52	28.6	0	0	---	0.00	29.981 
22:50	45.2	45.2	45.2	52	28.6	0	1	338	0.00	29.981 
22:55	45.2	45.2	45.2	51	28.2	0	1	338	0.00	29.981 
23:00	45.2	45.2	45.2	50	27.7	0	0	---	0.00	29.984 
23:05	45.1	45.1	45.1	50	27.6	0	1	338	0.00	29.984 
23:10	44.9	44.9	44.9	50	27.4	0	1	338	0.00	29.984 
23:15	45.1	45.1	45.1	50	27.6	0	1	248	0.00	29.987 
23:20	45.1	45.1	45.1	49	27.1	0	1	248	0.00	29.987 
23:25	44.9	44.9	44.9	50	27.4	0	1	248	0.00	29.987 
23:30	44.8	44.8	44.8	50	27.3	0	1	248	0.00	29.995 
23:35	44.5	44.5	44.5	50	27.0	0	1	248	0.00	29.995 
23:40	44.3	44.3	44.3	50	26.8	0	1	248	0.00	29.995 
23:45	44.1	44.1	44.1	51	27.1	0	0	---	0.00	29.997 
23:50	43.8	43.8	43.8	52	27.3	0	1	248	0.00	29.997 
23:55	43.5	43.5	43.5	52	27.1	0	0	---	0.00	29.997 

CoCoRaHS
IN-AL-39
A2 Web Hosting
Creative Commons License
GoDaddy
search engine by freefind advanced

loaded 2018-11-17 19:01:24 • last modified 2010-11-18 10:43:29
Privacy PolicyDisclaimer
• wx.awcolley.com is powered by PmWiki v.2002016 •
• all content (unless otherwise noted) © 2018 A W Colley